Time,TemperatureF,DewpointF,PressureIn,WindDirection,WindDirectionDegrees,WindSpeedMPH,WindSpeedGustMPH,Humidity,HourlyPrecipIn,Conditions,Clouds,dailyrainin,SoftwareType,DateUTC
2013-05-16 00:00:00,46.5,41.9,29.78,SW,228,0.0,0.0,84,0.00,CLR,SKC,0.00,WeatherDisplay:10.37,2013-05-16 06:00:00,
2013-05-16 00:05:00,46.2,41.6,29.78,SW,228,0.0,0.0,84,0.00,CLR,SKC,0.00,WeatherDisplay:10.37,2013-05-16 06:05:00,
2013-05-16 00:10:00,45.9,41.6,29.78,SW,228,0.0,0.0,85,0.00,CLR,SKC,0.00,WeatherDisplay:10.37,2013-05-16 06:10:00,
2013-05-16 00:15:00,45.6,41.4,29.78,SW,228,0.0,0.0,85,0.00,CLR,SKC,0.00,WeatherDisplay:10.37,2013-05-16 06:15:00,
2013-05-16 00:20:00,45.4,41.5,29.78,SW,228,0.0,0.0,86,0.00,CLR,SKC,0.00,WeatherDisplay:10.37,2013-05-16 06:20:00,
2013-05-16 00:25:00,45.1,41.2,29.78,SW,228,0.0,0.0,86,0.00,CLR,SKC,0.00,WeatherDisplay:10.37,2013-05-16 06:25:00,
2013-05-16 00:30:00,44.9,41.0,29.78,SW,228,0.0,0.0,86,0.00,CLR,SKC,0.00,WeatherDisplay:10.37,2013-05-16 06:30:00,
2013-05-16 00:35:00,44.7,40.8,29.78,SW,228,0.0,0.0,86,0.00,CLR,SKC,0.00,WeatherDisplay:10.37,2013-05-16 06:35:00,
2013-05-16 00:40:00,44.6,40.7,29.79,SW,228,0.0,0.0,86,0.00,CLR,SKC,0.00,WeatherDisplay:10.37,2013-05-16 06:40:00,
2013-05-16 00:45:00,44.4,40.5,29.78,SW,228,0.0,0.0,86,0.00,CLR,SKC,0.00,WeatherDisplay:10.37,2013-05-16 06:45:00,
2013-05-16 00:51:00,44.2,40.3,29.79,SW,228,0.0,0.0,86,0.00,CLR,SKC,0.00,WeatherDisplay:10.37,2013-05-16 06:51:00,
2013-05-16 00:56:00,43.9,40.3,29.79,SW,228,0.0,0.0,87,0.00,CLR,SKC,0.00,WeatherDisplay:10.37,2013-05-16 06:56:00,
2013-05-16 01:01:00,43.7,40.1,29.79,SW,228,0.0,0.0,87,0.00,CLR,SKC,0.00,WeatherDisplay:10.37,2013-05-16 07:01:00,
2013-05-16 01:06:00,43.4,40.1,29.79,SW,228,0.0,0.0,88,0.00,CLR,SKC,0.00,WeatherDisplay:10.37,2013-05-16 07:06:00,
2013-05-16 01:12:00,43.3,40.0,29.79,SW,228,0.0,0.0,88,0.00,CLR,SKC,0.00,WeatherDisplay:10.37,2013-05-16 07:12:00,
2013-05-16 01:17:00,42.9,39.6,29.79,SW,228,0.0,0.0,88,0.00,CLR,SKC,0.00,WeatherDisplay:10.37,2013-05-16 07:17:00,
2013-05-16 01:22:00,42.7,39.4,29.79,SW,228,0.0,0.0,88,0.00,CLR,SKC,0.00,WeatherDisplay:10.37,2013-05-16 07:22:00,
2013-05-16 01:26:00,42.5,39.2,29.79,SW,228,0.0,0.0,88,0.00,CLR,SKC,0.00,WeatherDisplay:10.37,2013-05-16 07:26:00,
2013-05-16 01:31:00,42.5,39.5,29.78,SW,228,0.0,0.0,89,0.00,CLR,SKC,0.00,WeatherDisplay:10.37,2013-05-16 07:31:00,
2013-05-16 01:37:00,42.4,39.4,29.79,SW,228,0.0,0.0,89,0.00,CLR,SKC,0.00,WeatherDisplay:10.37,2013-05-16 07:37:00,
2013-05-16 01:42:00,42.4,39.4,29.79,SW,228,0.0,0.0,89,0.00,CLR,SKC,0.00,WeatherDisplay:10.37,2013-05-16 07:42:00,
2013-05-16 01:47:00,42.3,39.3,29.79,SW,228,0.0,0.0,89,0.00,CLR,SKC,0.00,WeatherDisplay:10.37,2013-05-16 07:47:00,
2013-05-16 01:52:00,42.2,39.2,29.79,SW,228,0.0,0.0,89,0.00,CLR,SKC,0.00,WeatherDisplay:10.37,2013-05-16 07:52:00,
2013-05-16 01:57:00,42.1,39.1,29.79,SW,228,0.0,0.0,89,0.00,CLR,SKC,0.00,WeatherDisplay:10.37,2013-05-16 07:57:00,
2013-05-16 02:03:00,42.2,39.2,29.79,SW,228,0.0,0.0,89,0.00,CLR,SKC,0.00,WeatherDisplay:10.37,2013-05-16 08:03:00,
2013-05-16 02:08:00,42.2,39.2,29.79,SW,228,0.0,0.0,89,0.00,CLR,SKC,0.00,WeatherDisplay:10.37,2013-05-16 08:08:00,
2013-05-16 02:13:00,42.2,39.2,29.79,SW,228,0.0,0.0,89,0.00,CLR,SKC,0.00,WeatherDisplay:10.37,2013-05-16 08:13:00,
2013-05-16 02:18:00,42.0,39.0,29.79,SW,228,0.0,0.0,89,0.00,CLR,SKC,0.00,WeatherDisplay:10.37,2013-05-16 08:18:00,
2013-05-16 02:23:00,42.0,39.0,29.78,SW,228,0.0,0.0,89,0.00,CLR,SKC,0.00,WeatherDisplay:10.37,2013-05-16 08:23:00,
2013-05-16 02:28:00,41.9,38.9,29.78,SW,228,0.0,0.0,89,0.00,CLR,SKC,0.00,WeatherDisplay:10.37,2013-05-16 08:28:00,
2013-05-16 02:33:00,41.8,39.1,29.78,SW,228,0.0,0.0,90,0.00,CLR,SKC,0.00,WeatherDisplay:10.37,2013-05-16 08:33:00,
2013-05-16 02:38:00,41.7,39.0,29.78,SW,228,0.0,0.0,90,0.00,CLR,SKC,0.00,WeatherDisplay:10.37,2013-05-16 08:38:00,
2013-05-16 02:44:00,41.8,39.1,29.78,SW,228,0.0,0.0,90,0.00,CLR,SKC,0.00,WeatherDisplay:10.37,2013-05-16 08:44:00,
2013-05-16 02:49:00,41.9,39.5,29.78,SW,228,0.0,0.0,91,0.00,CLR,SKC,0.00,WeatherDisplay:10.37,2013-05-16 08:49:00,
2013-05-16 02:54:00,42.0,39.6,29.78,SW,228,0.0,0.0,91,0.00,CLR,SKC,0.00,WeatherDisplay:10.37,2013-05-16 08:54:00,
2013-05-16 02:59:00,42.0,39.6,29.78,SW,228,0.0,0.0,91,0.00,CLR,SKC,0.00,WeatherDisplay:10.37,2013-05-16 08:59:00,
2013-05-16 03:04:00,42.1,39.7,29.78,SW,228,0.0,0.0,91,0.00,CLR,SKC,0.00,WeatherDisplay:10.37,2013-05-16 09:04:00,
2013-05-16 03:09:00,42.1,39.7,29.78,SW,228,0.0,0.0,91,0.00,CLR,SKC,0.00,WeatherDisplay:10.37,2013-05-16 09:09:00,
2013-05-16 03:14:00,42.2,39.8,29.78,SW,228,0.0,0.0,91,0.00,CLR,SKC,0.00,WeatherDisplay:10.37,2013-05-16 09:14:00,
2013-05-16 03:19:00,42.4,40.2,29.78,SW,228,0.0,0.0,92,0.00,CLR,SKC,0.00,WeatherDisplay:10.37,2013-05-16 09:19:00,
2013-05-16 03:24:00,42.5,40.3,29.78,SW,228,0.0,0.0,92,0.00,CLR,SKC,0.00,WeatherDisplay:10.37,2013-05-16 09:24:00,
2013-05-16 03:29:00,42.7,40.5,29.78,SW,228,0.0,0.0,92,0.00,CLR,SKC,0.00,WeatherDisplay:10.37,2013-05-16 09:29:00,
2013-05-16 03:34:00,42.9,40.7,29.78,SW,228,0.0,0.0,92,0.00,CLR,SKC,0.00,WeatherDisplay:10.37,2013-05-16 09:34:00,
2013-05-16 03:39:00,42.9,40.5,29.78,SW,228,0.0,0.0,91,0.00,CLR,SKC,0.00,WeatherDisplay:10.37,2013-05-16 09:39:00,
2013-05-16 03:44:00,42.9,40.5,29.78,SW,228,0.0,0.0,91,0.00,CLR,SKC,0.00,WeatherDisplay:10.37,2013-05-16 09:44:00,
2013-05-16 03:49:00,42.9,40.5,29.78,SW,228,0.0,0.0,91,0.00,CLR,SKC,0.00,WeatherDisplay:10.37,2013-05-16 09:49:00,
2013-05-16 03:54:00,43.1,40.7,29.78,SW,228,0.0,0.0,91,0.00,CLR,SKC,0.00,WeatherDisplay:10.37,2013-05-16 09:54:00,
2013-05-16 03:59:00,43.3,40.8,29.77,SW,228,0.0,0.0,91,0.00,CLR,SKC,0.00,WeatherDisplay:10.37,2013-05-16 09:59:00,
2013-05-16 04:04:00,43.6,41.1,29.77,SW,228,0.0,0.0,91,0.00,CLR,SKC,0.00,WeatherDisplay:10.37,2013-05-16 10:04:00,
2013-05-16 04:09:00,43.7,41.2,29.77,SW,228,0.0,0.0,91,0.00,CLR,SKC,0.00,WeatherDisplay:10.37,2013-05-16 10:09:00,
2013-05-16 04:15:00,43.6,40.9,29.77,SW,228,0.0,0.0,90,0.00,CLR,SKC,0.00,WeatherDisplay:10.37,2013-05-16 10:15:00,
2013-05-16 04:20:00,43.7,41.0,29.77,SW,228,0.0,0.0,90,0.00,CLR,SKC,0.00,WeatherDisplay:10.37,2013-05-16 10:20:00,
2013-05-16 04:25:00,43.7,41.0,29.78,SW,228,0.0,0.0,90,0.00,CLR,SKC,0.00,WeatherDisplay:10.37,2013-05-16 10:25:00,
2013-05-16 04:30:00,43.8,41.1,29.78,SW,228,0.0,0.0,90,0.00,CLR,SKC,0.00,WeatherDisplay:10.37,2013-05-16 10:30:00,
2013-05-16 04:36:00,43.9,41.4,29.78,SW,228,0.0,0.0,91,0.00,CLR,SKC,0.00,WeatherDisplay:10.37,2013-05-16 10:36:00,
2013-05-16 04:42:00,44.1,41.6,29.78,SW,228,0.0,0.0,91,0.00,CLR,SKC,0.00,WeatherDisplay:10.37,2013-05-16 10:42:00,
2013-05-16 04:47:00,44.2,41.7,29.78,SW,228,0.0,0.0,91,0.00,CLR,SKC,0.00,WeatherDisplay:10.37,2013-05-16 10:47:00,
2013-05-16 04:52:00,44.1,41.6,29.78,SW,228,0.0,0.0,91,0.00,CLR,SKC,0.00,WeatherDisplay:10.37,2013-05-16 10:52:00,
2013-05-16 04:57:00,44.2,41.7,29.78,SW,228,0.0,0.0,91,0.00,CLR,SKC,0.00,WeatherDisplay:10.37,2013-05-16 10:57:00,
2013-05-16 05:02:00,44.2,41.7,29.78,SW,228,0.0,0.0,91,0.00,CLR,SKC,0.00,WeatherDisplay:10.37,2013-05-16 11:02:00,
2013-05-16 05:07:00,44.3,41.6,29.78,SW,228,0.0,0.0,90,0.00,CLR,SKC,0.00,WeatherDisplay:10.37,2013-05-16 11:07:00,
2013-05-16 05:12:00,44.3,41.8,29.78,SW,228,0.0,0.0,91,0.00,CLR,SKC,0.00,WeatherDisplay:10.37,2013-05-16 11:12:00,
2013-05-16 05:17:00,44.3,41.8,29.79,SW,228,0.0,0.0,91,0.00,CLR,SKC,0.00,WeatherDisplay:10.37,2013-05-16 11:17:00,
2013-05-16 05:22:00,44.4,41.7,29.79,SW,228,0.0,0.0,90,0.00,CLR,SKC,0.00,WeatherDisplay:10.37,2013-05-16 11:22:00,
2013-05-16 05:27:00,44.3,41.6,29.79,SW,228,0.0,0.0,90,0.00,CLR,SKC,0.00,WeatherDisplay:10.37,2013-05-16 11:27:00,
2013-05-16 05:33:00,44.2,41.7,29.79,SW,228,0.0,0.0,91,0.00,CLR,SKC,0.00,WeatherDisplay:10.37,2013-05-16 11:33:00,
2013-05-16 05:38:00,44.3,41.8,29.79,SW,228,0.0,0.0,91,0.00,CLR,SKC,0.00,WeatherDisplay:10.37,2013-05-16 11:38:00,
2013-05-16 05:43:00,44.3,41.6,29.79,SW,228,0.0,0.0,90,0.00,CLR,SKC,0.00,WeatherDisplay:10.37,2013-05-16 11:43:00,
2013-05-16 05:48:00,44.3,41.6,29.79,SW,228,0.0,0.0,90,0.00,CLR,SKC,0.00,WeatherDisplay:10.37,2013-05-16 11:48:00,
2013-05-16 05:54:00,44.3,41.6,29.79,SW,228,0.0,0.0,90,0.00,CLR,SKC,0.00,WeatherDisplay:10.37,2013-05-16 11:54:00,
2013-05-16 05:59:00,44.2,41.5,29.79,SW,228,0.0,0.0,90,0.00,CLR,SKC,0.00,WeatherDisplay:10.37,2013-05-16 11:59:00,
2013-05-16 06:04:00,44.2,41.7,29.79,SW,228,0.0,0.0,91,0.00,CLR,SKC,0.00,WeatherDisplay:10.37,2013-05-16 12:04:00,
2013-05-16 06:09:00,44.3,41.8,29.79,SW,228,0.0,0.0,91,0.00,CLR,SKC,0.00,WeatherDisplay:10.37,2013-05-16 12:09:00,
2013-05-16 06:14:00,44.4,41.9,29.79,SW,228,0.0,0.0,91,0.00,CLR,SKC,0.00,WeatherDisplay:10.37,2013-05-16 12:14:00,
2013-05-16 06:19:00,44.4,41.9,29.79,SW,228,0.0,0.0,91,0.00,CLR,SKC,0.00,WeatherDisplay:10.37,2013-05-16 12:19:00,
2013-05-16 06:24:00,44.6,42.4,29.79,SW,228,1.1,1.1,92,0.00,CLR,SKC,0.00,WeatherDisplay:10.37,2013-05-16 12:24:00,
2013-05-16 06:29:00,44.7,42.2,29.79,SW,228,0.0,0.0,91,0.00,CLR,SKC,0.00,WeatherDisplay:10.37,2013-05-16 12:29:00,
2013-05-16 06:34:00,44.8,42.3,29.79,SW,228,0.0,0.0,91,0.00,CLR,SKC,0.00,WeatherDisplay:10.37,2013-05-16 12:34:00,
2013-05-16 06:39:00,44.9,42.4,29.79,SW,228,0.0,0.0,91,0.00,CLR,SKC,0.00,WeatherDisplay:10.37,2013-05-16 12:39:00,
2013-05-16 06:44:00,44.9,42.4,29.80,SW,228,0.0,0.0,91,0.00,CLR,SKC,0.00,WeatherDisplay:10.37,2013-05-16 12:44:00,
2013-05-16 06:49:00,44.9,42.4,29.80,SW,228,0.0,0.0,91,0.00,CLR,SKC,0.00,WeatherDisplay:10.37,2013-05-16 12:49:00,
2013-05-16 06:54:00,44.8,42.3,29.80,SW,228,0.0,0.0,91,0.00,CLR,SKC,0.00,WeatherDisplay:10.37,2013-05-16 12:54:00,
2013-05-16 07:00:00,44.9,42.4,29.80,SW,228,0.0,0.0,91,0.00,CLR,SKC,0.00,WeatherDisplay:10.37,2013-05-16 13:00:00,
2013-05-16 07:05:00,44.9,42.4,29.80,SW,228,0.0,0.0,91,0.00,CLR,SKC,0.00,WeatherDisplay:10.37,2013-05-16 13:05:00,
2013-05-16 07:10:00,44.9,42.7,29.81,SW,228,0.0,0.0,92,0.00,CLR,SKC,0.00,WeatherDisplay:10.37,2013-05-16 13:10:00,
2013-05-16 07:15:00,44.9,42.7,29.80,SW,228,0.0,0.0,92,0.00,CLR,SKC,0.00,WeatherDisplay:10.37,2013-05-16 13:15:00,
2013-05-16 07:20:00,44.9,42.7,29.80,SW,228,0.0,0.0,92,0.00,CLR,SKC,0.00,WeatherDisplay:10.37,2013-05-16 13:20:00,
2013-05-16 07:25:00,45.0,42.8,29.80,SW,228,0.0,0.0,92,0.00,CLR,SKC,0.00,WeatherDisplay:10.37,2013-05-16 13:25:00,
2013-05-16 07:30:00,45.0,42.8,29.81,SW,228,0.0,0.0,92,0.00,CLR,SKC,0.00,WeatherDisplay:10.37,2013-05-16 13:30:00,
2013-05-16 07:35:00,45.0,42.8,29.81,SW,228,0.0,0.0,92,0.00,CLR,SKC,0.00,WeatherDisplay:10.37,2013-05-16 13:35:00,
2013-05-16 07:40:00,45.0,43.1,29.81,SW,228,0.0,0.0,93,0.00,CLR,SKC,0.00,WeatherDisplay:10.37,2013-05-16 13:40:00,
2013-05-16 07:45:00,45.0,43.1,29.81,SW,228,0.0,0.0,93,0.00,CLR,SKC,0.00,WeatherDisplay:10.37,2013-05-16 13:45:00,
2013-05-16 07:50:00,45.1,43.2,29.81,SW,228,0.0,0.0,93,0.00,CLR,SKC,0.00,WeatherDisplay:10.37,2013-05-16 13:50:00,
2013-05-16 07:55:00,45.1,42.9,29.81,SW,228,0.0,0.0,92,0.00,CLR,SKC,0.00,WeatherDisplay:10.37,2013-05-16 13:55:00,
2013-05-16 08:01:00,45.1,42.9,29.81,SW,228,0.0,0.0,92,0.00,CLR,SKC,0.00,WeatherDisplay:10.37,2013-05-16 14:01:00,
2013-05-16 08:06:00,45.3,43.4,29.81,SW,228,0.0,0.0,93,0.00,CLR,SKC,0.00,WeatherDisplay:10.37,2013-05-16 14:06:00,
2013-05-16 08:11:00,45.4,43.5,29.81,SW,228,0.0,0.0,93,0.00,CLR,SKC,0.00,WeatherDisplay:10.37,2013-05-16 14:11:00,
2013-05-16 08:16:00,45.5,43.6,29.81,SW,228,0.0,0.0,93,0.00,CLR,SKC,0.00,WeatherDisplay:10.37,2013-05-16 14:16:00,
2013-05-16 08:21:00,45.8,44.2,29.81,SW,228,0.0,0.0,94,0.00,CLR,SKC,0.00,WeatherDisplay:10.37,2013-05-16 14:21:00,
2013-05-16 08:26:00,46.0,44.4,29.81,SW,228,0.0,0.0,94,0.00,CLR,SKC,0.00,WeatherDisplay:10.37,2013-05-16 14:26:00,
2013-05-16 08:31:00,46.1,44.2,29.81,SW,228,0.0,0.0,93,0.00,CLR,SKC,0.00,WeatherDisplay:10.37,2013-05-16 14:31:00,
2013-05-16 08:36:00,46.2,44.3,29.81,SW,228,0.0,0.0,93,0.00,CLR,SKC,0.00,WeatherDisplay:10.37,2013-05-16 14:36:00,
2013-05-16 08:41:00,46.2,44.3,29.81,SW,228,0.0,0.0,93,0.00,CLR,SKC,0.00,WeatherDisplay:10.37,2013-05-16 14:41:00,
2013-05-16 08:46:00,46.4,44.5,29.81,SW,228,0.0,0.0,93,0.00,CLR,SKC,0.00,WeatherDisplay:10.37,2013-05-16 14:46:00,
2013-05-16 08:51:00,46.6,44.7,29.81,SW,228,0.0,0.0,93,0.00,CLR,SKC,0.00,WeatherDisplay:10.37,2013-05-16 14:51:00,
2013-05-16 08:56:00,46.8,44.6,29.81,SW,228,0.0,0.0,92,0.00,CLR,SKC,0.00,WeatherDisplay:10.37,2013-05-16 14:56:00,
2013-05-16 09:01:00,47.0,44.8,29.81,SW,228,0.0,0.0,92,0.00,CLR,SKC,0.00,WeatherDisplay:10.37,2013-05-16 15:01:00,
2013-05-16 09:07:00,47.1,44.9,29.81,SW,228,0.0,0.0,92,0.01,RA,SKC,0.01,WeatherDisplay:10.37,2013-05-16 15:07:00,
2013-05-16 09:12:00,47.3,45.4,29.82,SW,228,0.0,0.0,93,0.01,RA,SKC,0.01,WeatherDisplay:10.37,2013-05-16 15:12:00,
2013-05-16 09:17:00,47.3,45.1,29.82,SW,228,0.0,0.0,92,0.01,,SKC,0.01,WeatherDisplay:10.37,2013-05-16 15:17:00,
2013-05-16 09:22:00,47.3,45.1,29.82,SW,228,0.0,0.0,92,0.01,CLR,SKC,0.01,WeatherDisplay:10.37,2013-05-16 15:22:00,
2013-05-16 09:27:00,47.4,45.5,29.82,SW,228,0.0,0.0,93,0.01,CLR,SKC,0.01,WeatherDisplay:10.37,2013-05-16 15:27:00,
2013-05-16 09:32:00,47.4,45.5,29.82,SW,228,0.0,0.0,93,0.01,CLR,SKC,0.01,WeatherDisplay:10.37,2013-05-16 15:32:00,
2013-05-16 09:38:00,47.8,46.2,29.82,SW,228,0.0,0.0,94,0.01,CLR,SKC,0.01,WeatherDisplay:10.37,2013-05-16 15:38:00,
2013-05-16 09:43:00,47.9,46.0,29.82,SW,228,0.0,0.0,93,0.01,CLR,SKC,0.01,WeatherDisplay:10.37,2013-05-16 15:43:00,
2013-05-16 09:48:00,48.0,46.1,29.81,SW,228,0.0,0.0,93,0.01,CLR,SKC,0.01,WeatherDisplay:10.37,2013-05-16 15:48:00,
2013-05-16 09:53:00,48.1,46.2,29.82,SW,228,0.0,0.0,93,0.01,CLR,SKC,0.01,WeatherDisplay:10.37,2013-05-16 15:53:00,
2013-05-16 09:58:00,48.0,45.8,29.82,SW,228,0.0,0.0,92,0.01,CLR,SKC,0.01,WeatherDisplay:10.37,2013-05-16 15:58:00,
2013-05-16 10:03:00,48.1,46.2,29.82,SW,228,0.0,0.0,93,0.01,CLR,SKC,0.01,WeatherDisplay:10.37,2013-05-16 16:03:00,
2013-05-16 10:08:00,48.1,45.9,29.82,SW,228,0.0,0.0,92,0.00,CLR,SKC,0.01,WeatherDisplay:10.37,2013-05-16 16:08:00,
2013-05-16 10:13:00,48.2,46.0,29.82,SW,228,0.0,0.0,92,0.00,CLR,SKC,0.01,WeatherDisplay:10.37,2013-05-16 16:13:00,
2013-05-16 10:19:00,48.4,46.5,29.82,SW,228,0.0,0.0,93,0.00,CLR,SKC,0.01,WeatherDisplay:10.37,2013-05-16 16:19:00,
2013-05-16 10:25:00,47.8,45.0,29.82,SW,228,0.0,0.0,90,0.00,CLR,SKC,0.01,WeatherDisplay:10.37,2013-05-16 16:25:00,
2013-05-16 10:30:00,47.5,44.7,29.82,SW,228,0.0,0.0,90,0.00,CLR,SKC,0.01,WeatherDisplay:10.37,2013-05-16 16:30:00,
2013-05-16 10:35:00,47.6,45.4,29.82,SW,228,0.0,0.0,92,0.00,CLR,SKC,0.01,WeatherDisplay:10.37,2013-05-16 16:35:00,
2013-05-16 10:40:00,47.7,45.5,29.82,SW,228,1.1,1.1,92,0.00,CLR,SKC,0.01,WeatherDisplay:10.37,2013-05-16 16:40:00,
2013-05-16 10:45:00,47.8,45.6,29.82,SW,228,0.0,0.0,92,0.00,CLR,SKC,0.01,WeatherDisplay:10.37,2013-05-16 16:45:00,
2013-05-16 10:50:00,48.1,46.2,29.82,SW,228,0.0,0.0,93,0.00,CLR,SKC,0.01,WeatherDisplay:10.37,2013-05-16 16:50:00,
2013-05-16 10:55:00,48.0,45.5,29.82,SW,228,0.0,0.0,91,0.00,CLR,SKC,0.01,WeatherDisplay:10.37,2013-05-16 16:55:00,
2013-05-16 11:00:00,48.0,45.5,29.82,SW,228,0.0,0.0,91,0.00,CLR,SKC,0.01,WeatherDisplay:10.37,2013-05-16 17:00:00,
2013-05-16 11:05:00,48.2,46.0,29.83,SW,228,0.0,0.0,92,0.00,CLR,SKC,0.01,WeatherDisplay:10.37,2013-05-16 17:05:00,
2013-05-16 11:10:00,48.3,46.1,29.82,SW,228,0.0,0.0,92,0.00,CLR,SKC,0.01,WeatherDisplay:10.37,2013-05-16 17:10:00,
2013-05-16 11:16:00,48.3,45.8,29.83,SW,228,0.0,0.0,91,0.00,CLR,SKC,0.01,WeatherDisplay:10.37,2013-05-16 17:16:00,
2013-05-16 11:20:00,48.2,45.7,29.83,SW,228,0.0,0.0,91,0.00,CLR,SKC,0.01,WeatherDisplay:10.37,2013-05-16 17:20:00,
2013-05-16 11:25:00,48.0,45.5,29.83,SW,228,0.0,0.0,91,0.00,CLR,SKC,0.01,WeatherDisplay:10.37,2013-05-16 17:25:00,
2013-05-16 11:30:00,48.1,45.6,29.83,SW,228,0.0,0.0,91,0.00,CLR,SKC,0.01,WeatherDisplay:10.37,2013-05-16 17:30:00,
2013-05-16 11:35:00,48.3,45.8,29.83,SW,228,0.0,0.0,91,0.00,CLR,SKC,0.01,WeatherDisplay:10.37,2013-05-16 17:35:00,
2013-05-16 11:41:00,48.4,45.6,29.83,SW,228,0.0,0.0,90,0.00,CLR,SKC,0.01,WeatherDisplay:10.37,2013-05-16 17:41:00,
2013-05-16 11:46:00,48.6,46.1,29.82,SW,228,0.0,0.0,91,0.00,CLR,SKC,0.01,WeatherDisplay:10.37,2013-05-16 17:46:00,
2013-05-16 11:51:00,49.0,46.2,29.83,SW,228,0.0,0.0,90,0.00,CLR,SKC,0.01,WeatherDisplay:10.37,2013-05-16 17:51:00,
2013-05-16 11:56:00,49.4,46.3,29.82,SE,146,1.1,1.1,89,0.00,CLR,SKC,0.01,WeatherDisplay:10.37,2013-05-16 17:56:00,
2013-05-16 12:01:00,49.5,45.8,29.82,SSE,148,1.1,0.0,87,0.00,CLR,SKC,0.01,WeatherDisplay:10.37,2013-05-16 18:01:00,
2013-05-16 12:07:00,49.7,45.4,29.82,NW,323,1.1,1.1,85,0.00,CLR,SKC,0.01,WeatherDisplay:10.37,2013-05-16 18:07:00,
2013-05-16 12:12:00,50.4,46.4,29.82,North,355,1.1,1.1,86,0.00,CLR,SKC,0.01,WeatherDisplay:10.37,2013-05-16 18:12:00,
2013-05-16 12:17:00,50.5,45.5,29.82,NNE,32,1.1,1.1,83,0.00,CLR,SKC,0.01,WeatherDisplay:10.37,2013-05-16 18:17:00,
2013-05-16 12:23:00,50.8,46.1,29.82,NNE,32,0.0,1.0,84,0.00,RA,SKC,0.01,WeatherDisplay:10.37,2013-05-16 18:23:00,
2013-05-16 12:28:00,51.1,45.5,29.82,NNE,25,2.3,2.3,81,0.00,CLR,SKC,0.01,WeatherDisplay:10.37,2013-05-16 18:28:00,
2013-05-16 12:33:00,51.3,45.7,29.82,NE,38,1.1,1.1,81,0.00,CLR,SKC,0.01,WeatherDisplay:10.37,2013-05-16 18:33:00,
2013-05-16 12:38:00,51.5,45.2,29.81,NE,54,0.0,0.1,79,0.00,CLR,SKC,0.01,WeatherDisplay:10.37,2013-05-16 18:38:00,
2013-05-16 12:43:00,51.6,45.0,29.82,NE,49,1.1,1.1,78,0.00,CLR,SKC,0.01,WeatherDisplay:10.37,2013-05-16 18:43:00,
2013-05-16 12:48:00,51.9,45.2,29.82,NE,47,0.0,1.0,78,0.00,RA,SKC,0.01,WeatherDisplay:10.37,2013-05-16 18:48:00,
2013-05-16 12:54:00,52.3,45.6,29.81,NE,42,2.3,2.3,78,0.00,CLR,SKC,0.01,WeatherDisplay:10.37,2013-05-16 18:54:00,
2013-05-16 12:59:00,52.5,45.2,29.81,NE,42,1.1,0.0,76,0.00,CLR,SKC,0.01,WeatherDisplay:10.37,2013-05-16 18:59:00,
2013-05-16 13:04:00,52.7,43.9,29.81,NE,42,0.0,0.0,72,0.00,CLR,SKC,0.01,WeatherDisplay:10.37,2013-05-16 19:04:00,
2013-05-16 13:09:00,52.7,43.6,29.81,NE,47,2.3,2.3,71,0.00,CLR,SKC,0.01,WeatherDisplay:10.37,2013-05-16 19:09:00,
2013-05-16 13:14:00,52.6,43.1,29.81,ENE,59,0.0,0.0,70,0.00,CLR,SKC,0.01,WeatherDisplay:10.37,2013-05-16 19:14:00,
2013-05-16 13:19:00,53.0,44.2,29.81,ENE,59,2.3,2.3,72,0.00,CLR,SKC,0.01,WeatherDisplay:10.37,2013-05-16 19:19:00,
2013-05-16 13:24:00,53.3,43.8,29.81,NE,46,0.0,0.0,70,0.00,CLR,SKC,0.01,WeatherDisplay:10.37,2013-05-16 19:24:00,
2013-05-16 13:29:00,53.9,44.7,29.80,NE,44,1.1,1.1,71,0.00,CLR,SKC,0.01,WeatherDisplay:10.37,2013-05-16 19:29:00,
2013-05-16 13:34:00,54.6,44.6,29.80,WNW,300,2.3,2.3,69,0.00,CLR,SKC,0.01,WeatherDisplay:10.37,2013-05-16 19:34:00,
2013-05-16 13:39:00,55.7,44.5,29.80,WNW,297,1.1,1.1,66,0.00,CLR,SKC,0.01,WeatherDisplay:10.37,2013-05-16 19:39:00,
2013-05-16 13:44:00,55.9,45.1,29.80,ENE,75,1.1,0.0,67,0.00,CLR,SKC,0.01,WeatherDisplay:10.37,2013-05-16 19:44:00,
2013-05-16 13:49:00,56.1,44.9,29.80,NE,47,3.5,3.5,66,0.00,CLR,SKC,0.01,WeatherDisplay:10.37,2013-05-16 19:49:00,
2013-05-16 13:54:00,55.8,44.6,29.80,SSE,155,1.1,1.1,66,0.00,CLR,SKC,0.01,WeatherDisplay:10.37,2013-05-16 19:54:00,
2013-05-16 13:59:00,55.8,45.4,29.80,SSE,155,1.1,0.0,68,0.00,CLR,SKC,0.01,WeatherDisplay:10.37,2013-05-16 19:59:00,
2013-05-16 14:04:00,56.1,44.5,29.79,ENE,70,1.1,1.1,65,0.00,CLR,SKC,0.01,WeatherDisplay:10.37,2013-05-16 20:04:00,
2013-05-16 14:10:00,55.7,44.5,29.79,ENE,70,1.1,1.1,66,0.00,CLR,SKC,0.01,WeatherDisplay:10.37,2013-05-16 20:10:00,
2013-05-16 14:16:00,55.4,44.6,29.80,NNE,20,0.0,0.0,67,0.00,CLR,SKC,0.01,WeatherDisplay:10.37,2013-05-16 20:16:00,
2013-05-16 14:21:00,55.3,44.1,29.79,NE,36,1.1,1.1,66,0.00,CLR,SKC,0.01,WeatherDisplay:10.37,2013-05-16 20:21:00,
2013-05-16 14:26:00,55.0,43.8,29.79,NE,36,1.1,1.1,66,0.00,CLR,SKC,0.01,WeatherDisplay:10.37,2013-05-16 20:26:00,
2013-05-16 14:31:00,55.1,44.3,29.79,NE,36,1.1,1.1,67,0.00,CLR,SKC,0.01,WeatherDisplay:10.37,2013-05-16 20:31:00,
2013-05-16 14:36:00,55.6,44.4,29.78,NE,36,1.1,1.1,66,0.00,CLR,SKC,0.01,WeatherDisplay:10.37,2013-05-16 20:36:00,
2013-05-16 14:41:00,56.2,45.8,29.78,NE,36,1.1,1.1,68,0.00,CLR,SKC,0.01,WeatherDisplay:10.37,2013-05-16 20:41:00,
2013-05-16 14:47:00,56.8,45.2,29.78,NE,36,1.1,1.1,65,0.00,CLR,SKC,0.01,WeatherDisplay:10.37,2013-05-16 20:47:00,
2013-05-16 14:52:00,57.0,44.9,29.78,NE,45,2.3,2.3,64,0.00,CLR,SKC,0.01,WeatherDisplay:10.37,2013-05-16 20:52:00,
2013-05-16 14:57:00,56.9,44.8,29.78,NE,45,0.0,0.0,64,0.00,CLR,SKC,0.01,WeatherDisplay:10.37,2013-05-16 20:57:00,
2013-05-16 15:02:00,56.9,44.8,29.78,NE,45,1.1,1.1,64,0.00,CLR,SKC,0.01,WeatherDisplay:10.37,2013-05-16 21:02:00,
2013-05-16 15:07:00,56.8,44.7,29.78,NNE,32,0.0,0.0,64,0.00,CLR,SKC,0.01,WeatherDisplay:10.37,2013-05-16 21:07:00,
2013-05-16 15:12:00,57.1,44.2,29.78,NNE,25,2.3,2.3,62,0.00,CLR,SKC,0.01,WeatherDisplay:10.37,2013-05-16 21:12:00,
2013-05-16 15:17:00,57.2,44.3,29.77,NNE,25,0.0,0.0,62,0.00,CLR,SKC,0.01,WeatherDisplay:10.37,2013-05-16 21:17:00,
2013-05-16 15:22:00,57.4,44.5,29.77,NNE,25,1.1,0.0,62,0.00,CLR,SKC,0.01,WeatherDisplay:10.37,2013-05-16 21:22:00,
2013-05-16 15:27:00,57.6,44.2,29.77,NE,42,1.1,1.1,61,0.00,CLR,SKC,0.01,WeatherDisplay:10.37,2013-05-16 21:27:00,
2013-05-16 15:32:00,57.8,44.0,29.77,NE,38,1.1,1.1,60,0.00,CLR,SKC,0.01,WeatherDisplay:10.37,2013-05-16 21:32:00,
2013-05-16 15:37:00,58.1,44.7,29.77,NE,41,2.3,2.3,61,0.00,CLR,SKC,0.01,WeatherDisplay:10.37,2013-05-16 21:37:00,
2013-05-16 15:42:00,58.1,43.4,29.77,NNE,32,1.1,0.0,58,0.00,CLR,SKC,0.01,WeatherDisplay:10.37,2013-05-16 21:42:00,
2013-05-16 15:48:00,58.0,43.3,29.76,NNW,338,0.0,0.0,58,0.00,CLR,SKC,0.01,WeatherDisplay:10.37,2013-05-16 21:48:00,
2013-05-16 15:53:00,58.1,42.9,29.76,NNW,338,1.1,1.1,57,0.00,CLR,SKC,0.01,WeatherDisplay:10.37,2013-05-16 21:53:00,
2013-05-16 15:58:00,58.4,42.8,29.76,NNW,338,0.0,0.0,56,0.00,CLR,SKC,0.01,WeatherDisplay:10.37,2013-05-16 21:58:00,
2013-05-16 16:03:00,58.6,43.9,29.76,NNE,22,1.1,1.1,58,0.00,CLR,SKC,0.01,WeatherDisplay:10.37,2013-05-16 22:03:00,
2013-05-16 16:07:00,59.2,44.0,29.76,NW,306,1.1,0.0,57,0.00,CLR,SKC,0.01,WeatherDisplay:10.37,2013-05-16 22:07:00,
2013-05-16 16:12:00,59.6,42.9,29.76,NE,56,0.0,0.0,54,0.00,CLR,SKC,0.01,WeatherDisplay:10.37,2013-05-16 22:12:00,
2013-05-16 16:17:00,59.9,42.7,29.75,NE,46,1.1,1.1,53,0.00,CLR,SKC,0.01,WeatherDisplay:10.37,2013-05-16 22:17:00,
2013-05-16 16:22:00,59.8,43.1,29.75,NE,46,1.1,1.1,54,0.00,CLR,SKC,0.01,WeatherDisplay:10.37,2013-05-16 22:22:00,
2013-05-16 16:28:00,59.7,43.0,29.75,NE,42,0.0,0.0,54,0.00,CLR,SKC,0.01,WeatherDisplay:10.37,2013-05-16 22:28:00,
2013-05-16 16:33:00,59.8,44.1,29.75,NE,42,0.0,1.0,56,0.00,RA,SKC,0.01,WeatherDisplay:10.37,2013-05-16 22:33:00,
2013-05-16 16:38:00,60.0,43.8,29.75,NE,42,0.0,0.0,55,0.00,CLR,SKC,0.01,WeatherDisplay:10.37,2013-05-16 22:38:00,
2013-05-16 16:44:00,60.0,42.8,29.75,NE,42,0.0,0.0,53,0.00,CLR,SKC,0.01,WeatherDisplay:10.37,2013-05-16 22:44:00,
2013-05-16 16:50:00,60.1,42.9,29.75,NNE,32,1.1,0.0,53,0.00,CLR,SKC,0.01,WeatherDisplay:10.37,2013-05-16 22:50:00,
2013-05-16 16:55:00,60.0,42.8,29.75,NNE,32,0.0,0.0,53,0.00,CLR,SKC,0.01,WeatherDisplay:10.37,2013-05-16 22:55:00,
2013-05-16 17:00:00,59.8,42.6,29.75,NNE,32,1.1,0.0,53,0.00,CLR,SKC,0.01,WeatherDisplay:10.37,2013-05-16 23:00:00,
2013-05-16 17:05:00,59.7,42.5,29.74,NNE,32,0.0,0.0,53,0.00,CLR,SKC,0.01,WeatherDisplay:10.37,2013-05-16 23:05:00,
2013-05-16 17:10:00,59.7,43.5,29.74,NNE,32,0.0,0.0,55,0.00,CLR,SKC,0.01,WeatherDisplay:10.37,2013-05-16 23:10:00,
2013-05-16 17:15:00,59.6,42.9,29.74,NE,45,1.1,1.1,54,0.00,CLR,SKC,0.01,WeatherDisplay:10.37,2013-05-16 23:15:00,
2013-05-16 17:21:00,59.5,42.8,29.74,NE,45,0.0,0.0,54,0.00,CLR,SKC,0.01,WeatherDisplay:10.37,2013-05-16 23:21:00,
2013-05-16 17:26:00,59.5,42.8,29.74,NE,45,1.1,1.1,54,0.00,CLR,SKC,0.01,WeatherDisplay:10.37,2013-05-16 23:26:00,
2013-05-16 17:31:00,59.4,42.7,29.74,NE,45,0.0,0.0,54,0.00,CLR,SKC,0.01,WeatherDisplay:10.37,2013-05-16 23:31:00,
2013-05-16 17:36:00,59.5,43.8,29.74,NE,45,0.0,0.0,56,0.00,CLR,SKC,0.01,WeatherDisplay:10.37,2013-05-16 23:36:00,
2013-05-16 17:41:00,59.7,43.5,29.74,NE,45,0.0,0.0,55,0.00,CLR,SKC,0.01,WeatherDisplay:10.37,2013-05-16 23:41:00,
2013-05-16 17:46:00,59.9,43.2,29.73,NE,45,1.1,0.0,54,0.00,CLR,SKC,0.01,WeatherDisplay:10.37,2013-05-16 23:46:00,
2013-05-16 17:51:00,59.9,42.7,29.74,NE,45,0.0,0.0,53,0.00,CLR,SKC,0.01,WeatherDisplay:10.37,2013-05-16 23:51:00,
2013-05-16 17:56:00,59.9,44.2,29.73,NE,45,1.1,1.1,56,0.00,CLR,SKC,0.01,WeatherDisplay:10.37,2013-05-16 23:56:00,
2013-05-16 18:01:00,59.8,43.1,29.73,NE,45,0.0,0.0,54,0.00,CLR,SKC,0.01,WeatherDisplay:10.37,2013-05-17 00:01:00,
2013-05-16 18:06:00,59.7,42.5,29.73,NE,45,0.0,0.0,53,0.00,CLR,SKC,0.01,WeatherDisplay:10.37,2013-05-17 00:06:00,
2013-05-16 18:11:00,59.7,43.0,29.73,NE,45,0.0,0.0,54,0.00,CLR,SKC,0.01,WeatherDisplay:10.37,2013-05-17 00:11:00,
2013-05-16 18:16:00,59.7,43.5,29.73,NE,45,0.0,0.0,55,0.00,CLR,SKC,0.01,WeatherDisplay:10.37,2013-05-17 00:16:00,
2013-05-16 18:21:00,59.6,41.9,29.73,NE,45,0.0,0.0,52,0.00,CLR,SKC,0.01,WeatherDisplay:10.37,2013-05-17 00:21:00,
2013-05-16 18:26:00,59.5,42.8,29.73,NE,45,0.0,0.0,54,0.00,CLR,SKC,0.01,WeatherDisplay:10.37,2013-05-17 00:26:00,
2013-05-16 18:31:00,59.3,41.2,29.73,NE,45,0.0,0.0,51,0.00,CLR,SKC,0.01,WeatherDisplay:10.37,2013-05-17 00:31:00,
2013-05-16 18:37:00,59.3,42.6,29.73,NE,45,0.0,0.0,54,0.00,CLR,SKC,0.01,WeatherDisplay:10.37,2013-05-17 00:37:00,
2013-05-16 18:42:00,59.4,42.7,29.73,NE,45,0.0,0.0,54,0.00,CLR,SKC,0.01,WeatherDisplay:10.37,2013-05-17 00:42:00,
2013-05-16 18:47:00,59.4,43.7,29.73,NE,45,0.0,0.0,56,0.00,CLR,SKC,0.01,WeatherDisplay:10.37,2013-05-17 00:47:00,
2013-05-16 18:52:00,59.4,43.2,29.73,NE,45,0.0,0.0,55,0.00,CLR,SKC,0.01,WeatherDisplay:10.37,2013-05-17 00:52:00,
2013-05-16 18:58:00,59.4,42.7,29.73,NE,45,0.0,0.0,54,0.00,CLR,SKC,0.01,WeatherDisplay:10.37,2013-05-17 00:58:00,
2013-05-16 19:03:00,59.3,42.6,29.73,NE,45,0.0,0.0,54,0.00,CLR,SKC,0.01,WeatherDisplay:10.37,2013-05-17 01:03:00,
2013-05-16 19:08:00,59.2,42.6,29.73,NE,45,0.0,0.0,54,0.00,CLR,SKC,0.01,WeatherDisplay:10.37,2013-05-17 01:08:00,
2013-05-16 19:13:00,59.1,43.4,29.73,NE,45,0.0,0.0,56,0.00,CLR,SKC,0.01,WeatherDisplay:10.37,2013-05-17 01:13:00,
2013-05-16 19:18:00,58.8,43.6,29.73,NE,45,0.0,0.0,57,0.00,CLR,SKC,0.01,WeatherDisplay:10.37,2013-05-17 01:18:00,
2013-05-16 19:24:00,58.6,44.3,29.73,NE,45,0.0,0.0,59,0.00,CLR,SKC,0.01,WeatherDisplay:10.37,2013-05-17 01:24:00,
2013-05-16 19:29:00,58.4,44.6,29.73,NE,45,0.0,0.0,60,0.00,CLR,SKC,0.01,WeatherDisplay:10.37,2013-05-17 01:29:00,
2013-05-16 19:34:00,58.2,45.2,29.73,NE,45,0.0,0.0,62,0.00,CLR,SKC,0.01,WeatherDisplay:10.37,2013-05-17 01:34:00,
2013-05-16 19:39:00,58.0,46.3,29.73,NE,45,0.0,0.0,65,0.00,CLR,SKC,0.01,WeatherDisplay:10.37,2013-05-17 01:39:00,
2013-05-16 19:44:00,57.6,46.3,29.73,NE,45,0.0,0.0,66,0.00,CLR,SKC,0.01,WeatherDisplay:10.37,2013-05-17 01:44:00,
2013-05-16 19:49:00,57.4,46.1,29.73,NE,45,0.0,0.0,66,0.00,CLR,SKC,0.01,WeatherDisplay:10.37,2013-05-17 01:49:00,
2013-05-16 19:54:00,57.2,46.7,29.73,NE,45,0.0,0.0,68,0.00,CLR,SKC,0.01,WeatherDisplay:10.37,2013-05-17 01:54:00,
2013-05-16 19:59:00,56.9,46.8,29.73,NE,45,0.0,0.0,69,0.00,CLR,SKC,0.01,WeatherDisplay:10.37,2013-05-17 01:59:00,
2013-05-16 20:04:00,56.5,46.8,29.73,NE,45,0.0,0.0,70,0.00,CLR,SKC,0.01,WeatherDisplay:10.37,2013-05-17 02:04:00,
2013-05-16 20:09:00,56.0,46.3,29.73,NE,45,0.0,0.0,70,0.00,RA,SKC,0.01,WeatherDisplay:10.37,2013-05-17 02:09:00,
2013-05-16 20:15:00,55.2,45.6,29.73,NE,45,0.0,0.0,70,0.00,CLR,SKC,0.01,WeatherDisplay:10.37,2013-05-17 02:15:00,
2013-05-16 20:20:00,54.8,45.9,29.73,NE,45,0.0,0.0,72,0.00,CLR,SKC,0.01,WeatherDisplay:10.37,2013-05-17 02:20:00,
2013-05-16 20:26:00,54.3,45.8,29.73,NE,45,0.0,0.0,73,0.00,CLR,SKC,0.01,WeatherDisplay:10.37,2013-05-17 02:26:00,
2013-05-16 20:31:00,53.9,45.8,29.73,NE,45,0.0,0.0,74,0.00,CLR,SKC,0.01,WeatherDisplay:10.37,2013-05-17 02:31:00,
2013-05-16 20:36:00,53.4,46.0,29.74,NE,45,0.0,0.0,76,0.00,CLR,SKC,0.01,WeatherDisplay:10.37,2013-05-17 02:36:00,
2013-05-16 20:41:00,53.0,46.0,29.74,NE,45,0.0,0.0,77,0.00,CLR,SKC,0.01,WeatherDisplay:10.37,2013-05-17 02:41:00,
2013-05-16 20:45:00,52.9,46.6,29.74,NE,45,0.0,0.0,79,0.00,CLR,SKC,0.01,WeatherDisplay:10.37,2013-05-17 02:45:00,
2013-05-16 20:50:00,52.7,46.4,29.74,NE,45,0.0,0.0,79,0.00,CLR,SKC,0.01,WeatherDisplay:10.37,2013-05-17 02:50:00,
2013-05-16 20:55:00,52.6,46.3,29.74,NE,45,0.0,0.0,79,0.00,CLR,SKC,0.01,WeatherDisplay:10.37,2013-05-17 02:55:00,
2013-05-16 21:00:00,52.5,46.2,29.74,NE,45,0.0,0.0,79,0.00,CLR,SKC,0.01,WeatherDisplay:10.37,2013-05-17 03:00:00,
2013-05-16 21:06:00,52.3,45.6,29.74,NE,45,0.0,0.0,78,0.00,CLR,SKC,0.01,WeatherDisplay:10.37,2013-05-17 03:06:00,
2013-05-16 21:11:00,52.1,45.8,29.74,NE,45,0.0,0.0,79,0.00,CLR,SKC,0.01,WeatherDisplay:10.37,2013-05-17 03:11:00,
2013-05-16 21:16:00,51.8,44.8,29.74,NE,45,0.0,0.0,77,0.00,CLR,SKC,0.01,WeatherDisplay:10.37,2013-05-17 03:16:00,
2013-05-16 21:21:00,51.4,44.4,29.74,NE,45,0.0,0.0,77,0.00,CLR,SKC,0.01,WeatherDisplay:10.37,2013-05-17 03:21:00,
2013-05-16 21:26:00,51.3,44.0,29.74,NNE,28,1.1,1.1,76,0.00,CLR,SKC,0.01,WeatherDisplay:10.37,2013-05-17 03:26:00,
2013-05-16 21:31:00,51.1,44.1,29.74,NNE,28,1.1,0.0,77,0.00,CLR,SKC,0.01,WeatherDisplay:10.37,2013-05-17 03:31:00,
2013-05-16 21:36:00,50.8,43.5,29.74,NNE,28,1.1,0.0,76,0.00,CLR,SKC,0.01,WeatherDisplay:10.37,2013-05-17 03:36:00,
2013-05-16 21:41:00,50.8,43.2,29.75,NNE,30,0.0,0.0,75,0.00,CLR,SKC,0.01,WeatherDisplay:10.37,2013-05-17 03:41:00,
2013-05-16 21:46:00,50.8,43.2,29.75,NNE,30,0.0,0.0,75,0.00,CLR,SKC,0.01,WeatherDisplay:10.37,2013-05-17 03:46:00,
2013-05-16 21:51:00,50.9,42.9,29.75,NNE,26,1.1,0.0,74,0.00,CLR,SKC,0.01,WeatherDisplay:10.37,2013-05-17 03:51:00,
2013-05-16 21:56:00,50.9,42.6,29.75,WNW,294,2.3,2.3,73,0.00,CLR,SKC,0.01,WeatherDisplay:10.37,2013-05-17 03:56:00,
2013-05-16 22:01:00,51.0,42.6,29.75,WNW,294,0.0,0.0,73,0.00,CLR,SKC,0.01,WeatherDisplay:10.37,2013-05-17 04:01:00,
2013-05-16 22:02:00,51.0,42.6,29.75,WNW,294,0.0,0.0,73,0.00,CLR,SKC,0.01,WeatherDisplay:10.37,2013-05-17 04:02:00,
2013-05-16 22:04:00,51.1,42.7,29.75,WNW,294,0.0,0.0,73,0.00,CLR,SKC,0.01,WeatherDisplay:10.37,2013-05-17 04:04:00,
2013-05-16 22:06:00,51.1,41.7,29.75,WNW,292,0.0,0.0,70,0.00,CLR,SKC,0.01,WeatherDisplay:10.37,2013-05-17 04:06:00,
2013-05-16 22:11:00,51.2,42.5,29.75,NNW,335,0.0,0.3,72,0.00,CLR,SKC,0.01,WeatherDisplay:10.37,2013-05-17 04:11:00,
2013-05-16 22:13:00,51.2,42.5,29.75,NW,309,0.0,1.0,72,0.00,RA,SKC,0.01,WeatherDisplay:10.37,2013-05-17 04:13:00,
2013-05-16 22:18:00,51.0,42.3,29.76,NNW,346,0.0,1.0,72,0.00,RA,SKC,0.01,WeatherDisplay:10.37,2013-05-17 04:18:00,
2013-05-16 22:24:00,50.6,42.3,29.76,NNE,12,0.0,0.0,73,0.00,CLR,SKC,0.01,WeatherDisplay:10.37,2013-05-17 04:24:00,
2013-05-16 22:29:00,50.1,42.1,29.76,SW,225,1.1,0.0,74,0.00,CLR,SKC,0.01,WeatherDisplay:10.37,2013-05-17 04:29:00,
2013-05-16 22:34:00,49.9,42.6,29.76,SW,225,0.0,0.0,76,0.00,CLR,SKC,0.01,WeatherDisplay:10.37,2013-05-17 04:34:00,
2013-05-16 22:39:00,49.8,42.5,29.76,SW,225,0.0,0.0,76,0.00,CLR,SKC,0.01,WeatherDisplay:10.37,2013-05-17 04:39:00,
2013-05-16 22:44:00,49.6,42.7,29.76,SW,225,0.0,0.0,77,0.00,CLR,SKC,0.01,WeatherDisplay:10.37,2013-05-17 04:44:00,
2013-05-16 22:49:00,49.4,42.1,29.76,SW,225,0.0,0.0,76,0.00,CLR,SKC,0.01,WeatherDisplay:10.37,2013-05-17 04:49:00,
2013-05-16 22:54:00,49.3,41.7,29.76,SW,225,0.0,0.0,75,0.00,CLR,SKC,0.01,WeatherDisplay:10.37,2013-05-17 04:54:00,
2013-05-16 22:59:00,49.3,42.4,29.76,SW,225,0.0,0.0,77,0.00,CLR,SKC,0.01,WeatherDisplay:10.37,2013-05-17 04:59:00,
2013-05-16 23:04:00,49.1,41.9,29.76,SW,225,0.0,0.0,76,0.00,CLR,SKC,0.01,WeatherDisplay:10.37,2013-05-17 05:04:00,
2013-05-16 23:09:00,48.7,41.8,29.76,SW,225,0.0,0.0,77,0.00,CLR,SKC,0.01,WeatherDisplay:10.37,2013-05-17 05:09:00,
2013-05-16 23:14:00,48.4,42.2,29.76,SW,225,0.0,0.0,79,0.00,CLR,SKC,0.01,WeatherDisplay:10.37,2013-05-17 05:14:00,
2013-05-16 23:19:00,48.2,42.3,29.76,SW,225,0.0,0.0,80,0.00,CLR,SKC,0.01,WeatherDisplay:10.37,2013-05-17 05:19:00,
2013-05-16 23:24:00,47.8,41.9,29.76,SW,225,0.0,0.0,80,0.00,CLR,SKC,0.01,WeatherDisplay:10.37,2013-05-17 05:24:00,
2013-05-16 23:29:00,47.6,41.7,29.76,SW,225,0.0,0.0,80,0.00,CLR,SKC,0.01,WeatherDisplay:10.37,2013-05-17 05:29:00,
2013-05-16 23:34:00,47.3,41.8,29.76,SW,225,0.0,0.0,81,0.00,CLR,SKC,0.01,WeatherDisplay:10.37,2013-05-17 05:34:00,
2013-05-16 23:39:00,47.2,42.0,29.76,SW,225,0.0,0.0,82,0.00,CLR,SKC,0.01,WeatherDisplay:10.37,2013-05-17 05:39:00,
2013-05-16 23:44:00,47.2,42.0,29.76,SW,225,0.0,0.0,82,0.00,CLR,SKC,0.01,WeatherDisplay:10.37,2013-05-17 05:44:00,
2013-05-16 23:49:00,47.3,41.8,29.76,SW,225,0.0,0.0,81,0.00,CLR,SKC,0.01,WeatherDisplay:10.37,2013-05-17 05:49:00,
2013-05-16 23:54:00,47.5,41.6,29.75,SW,225,1.1,1.1,80,0.00,CLR,SKC,0.01,WeatherDisplay:10.37,2013-05-17 05:54:00,